Aeroporto :
LOGIN :

Iscrizione | Disclaimer

   EN    FR    IT 

 










Sommario :    VFR   VFR Marginale   IFR   IFR Intensivo   IFR Molto Intensivo
Visibilità : 
Base nubi : 
>= 8 km
>= 3000ft
5 / 8 km
1000 / 3000 ft
1500m / 5 km
500 / 1000 ft
800 / 1500m
200 / 500 ft
< 800m
< 200 ft
Simboli :   Temporali  Nebbia  Neve Forte  Precipitazioni Forti  Vento > 20 kt
SIGMETs :   Varie  Temporali  Ghiacco  Turbolenza  Onda orograficha  Ceneri Vulcaniche






- Altitudine del aeroporto : 407 ft


EGDM - MoD Boscombe Down Amesbury

ULTIMO METAR :
  • 230220Z AUTO 26017KT 9999 -DZ OVC006/// 16/15 Q1014

METARs OBSOLETI :
  • 230150Z AUTO 22005KT 9999 // OVC007/// 17/16 Q1014
  • 230120Z AUTO 22007KT 9999 -DZ OVC006/// 17/16 Q1014
  • 230050Z AUTO 22006KT 9999 -RA OVC006/// 17/16 Q1014
  • 230020Z AUTO 23006KT 9999 // OVC004/// 17/16 Q1014
  • 222350Z AUTO 22005KT 9999 OVC006/// 17/16 Q1015
  • 222320Z AUTO 22008KT 9999 OVC006/// 17/16 Q1015
  • 222250Z AUTO 21008KT 9999 BKN007/// BKN018/// 17/16 Q1015
  • 222220Z AUTO 21008KT 9999 OVC007/// 17/16 Q1015
  • 222150Z AUTO 20005KT 9999 OVC009/// 17/15 Q1015

Previsioni scadute.



MetMap, La meteo Aeronautica in un colpo d'occhio ! - Copyright ORBIFLY Dicembre 2007 - Disclaimer

ORBIFLY MET'MAP TEAM :

Programmazione e sviluppo : Alexandra Zaïnal
Concezione : Baudouin d'Aumeries
Supporto tecnico e logistico : Manuel Goepfert
Aiuto : Marc-Olivier Méhu
Aiuto per la traduzione : Arnaldo La Scala




FONTI E CREDITI :

   NOAA